createdAt,value
2022-12-24T00:01:07.102Z,99016.75
2022-12-24T00:03:35.336Z,99019.16
2022-12-24T00:06:05.410Z,99014.38
2022-12-24T00:08:32.816Z,99010.84
2022-12-24T00:11:00.485Z,99021.00
2022-12-24T00:13:27.952Z,99020.72
2022-12-24T00:15:56.669Z,99023.66
2022-12-24T00:18:24.080Z,99029.03
2022-12-24T00:20:51.713Z,99039.34
2022-12-24T00:23:19.477Z,99047.84
2022-12-24T00:25:47.598Z,99049.81
2022-12-24T00:28:16.185Z,99042.88
2022-12-24T00:30:44.573Z,99039.50
2022-12-24T00:33:13.376Z,99053.63
2022-12-24T00:35:41.585Z,99064.19
2022-12-24T00:38:09.929Z,99064.91
2022-12-24T00:40:37.379Z,99055.03
2022-12-24T00:43:04.798Z,99040.50
2022-12-24T00:45:32.199Z,99035.09
2022-12-24T00:47:59.709Z,99032.16
2022-12-24T00:50:28.409Z,99035.50
2022-12-24T00:52:55.759Z,99056.53
2022-12-24T00:55:23.159Z,99063.56
2022-12-24T00:57:50.550Z,99065.13
2022-12-24T01:00:18.382Z,99074.88
2022-12-24T01:02:46.076Z,99084.91
2022-12-24T01:05:12.829Z,99089.13
2022-12-24T01:07:43.866Z,99090.63
2022-12-24T01:10:13.715Z,99087.94
2022-12-24T01:12:41.678Z,99075.00
2022-12-24T01:15:10.312Z,99083.78
2022-12-24T01:17:38.043Z,99090.69
2022-12-24T01:20:07.885Z,99097.66
2022-12-24T01:22:35.387Z,99102.16
2022-12-24T01:25:05.056Z,99107.97
2022-12-24T01:27:33.168Z,99108.94
2022-12-24T01:30:00.519Z,99109.25
2022-12-24T01:32:27.916Z,99119.97
2022-12-24T01:34:55.300Z,99124.34
2022-12-24T01:37:22.702Z,99126.88
2022-12-24T01:39:50.135Z,99109.66
2022-12-24T01:42:39.257Z,99111.78
2022-12-24T01:45:41.760Z,99118.75
2022-12-24T01:48:17.075Z,99134.13
2022-12-24T01:50:45.196Z,99134.72
2022-12-24T01:53:13.506Z,99141.22
2022-12-24T01:55:41.857Z,99149.56
2022-12-24T01:58:12.139Z,99146.91
2022-12-24T02:00:39.561Z,99157.84
2022-12-24T02:03:07.572Z,99167.66
2022-12-24T02:05:40.162Z,99174.59
2022-12-24T02:08:09.332Z,99175.88
2022-12-24T02:10:36.720Z,99172.16
2022-12-24T02:13:05.399Z,99159.06
2022-12-24T02:15:43.591Z,99171.44
2022-12-24T02:18:20.741Z,99163.53
2022-12-24T02:21:11.287Z,99176.78
2022-12-24T02:24:03.262Z,99175.78
2022-12-24T02:26:44.095Z,99182.59
2022-12-24T02:29:27.472Z,99179.41
2022-12-24T02:32:02.786Z,99183.00
2022-12-24T02:34:33.916Z,99198.16
2022-12-24T02:37:06.695Z,99195.59
2022-12-24T02:39:41.273Z,99194.03
2022-12-24T02:42:12.835Z,99204.25
2022-12-24T02:44:45.656Z,99205.53
2022-12-24T02:47:16.060Z,99201.69
2022-12-24T02:49:45.741Z,99216.03
2022-12-24T02:52:28.942Z,99220.84
2022-12-24T02:54:56.582Z,99214.03
2022-12-24T02:57:34.491Z,99214.75
2022-12-24T03:00:03.707Z,99220.13
2022-12-24T03:02:51.486Z,99226.28
2022-12-24T03:05:21.344Z,99229.47
2022-12-24T03:07:57.348Z,99238.19
2022-12-24T03:10:30.190Z,99240.59
2022-12-24T03:13:03.399Z,99239.53
2022-12-24T03:15:32.667Z,99245.22
2022-12-24T03:18:04.279Z,99239.63
2022-12-24T03:20:36.211Z,99257.59
2022-12-24T03:23:04.935Z,99248.41
2022-12-24T03:25:33.787Z,99248.75
2022-12-24T03:28:05.809Z,99263.84
2022-12-24T03:30:33.749Z,99254.09
2022-12-24T03:33:02.740Z,99254.63
2022-12-24T03:35:30.132Z,99265.81
2022-12-24T03:37:57.616Z,99260.81
2022-12-24T03:40:25.053Z,99257.69
2022-12-24T03:42:52.466Z,99259.25
2022-12-24T03:45:19.896Z,99273.78
2022-12-24T03:47:47.325Z,99268.13
2022-12-24T03:50:16.118Z,99267.00
2022-12-24T03:52:43.976Z,99262.44
2022-12-24T03:55:11.503Z,99274.72
2022-12-24T03:57:39.018Z,99277.28
2022-12-24T04:00:07.998Z,99276.91
2022-12-24T04:02:35.875Z,99274.41
2022-12-24T04:05:03.460Z,99281.97
2022-12-24T04:07:35.919Z,99284.00
2022-12-24T04:10:03.313Z,99289.63
2022-12-24T04:12:30.690Z,99277.94
2022-12-24T04:14:58.065Z,99295.59
2022-12-24T04:17:25.480Z,99292.19
2022-12-24T04:19:52.898Z,99292.19
2022-12-24T04:22:20.486Z,99291.66
2022-12-24T04:24:49.287Z,99293.94
2022-12-24T04:27:17.616Z,99302.47
2022-12-24T04:29:45.046Z,99307.69
2022-12-24T04:32:12.497Z,99300.38
2022-12-24T04:34:39.888Z,99300.69
2022-12-24T04:37:07.296Z,99308.75
2022-12-24T04:39:34.688Z,99318.66
2022-12-24T04:42:03.386Z,99327.81
2022-12-24T04:44:30.756Z,99334.97
2022-12-24T04:46:58.107Z,99335.28
2022-12-24T04:49:25.685Z,99328.56
2022-12-24T04:51:53.084Z,99322.88
2022-12-24T04:54:20.906Z,99324.16
2022-12-24T04:56:48.321Z,99338.25
2022-12-24T04:59:17.009Z,99339.22
2022-12-24T05:01:44.443Z,99333.75
2022-12-24T05:04:12.068Z,99353.25
2022-12-24T05:06:39.462Z,99352.09
2022-12-24T05:09:06.866Z,99359.81
2022-12-24T05:11:34.278Z,99368.06
2022-12-24T05:14:01.644Z,99373.97
2022-12-24T05:16:30.437Z,99371.88
2022-12-24T05:18:57.931Z,99380.31
2022-12-24T05:21:26.073Z,99377.13
2022-12-24T05:24:11.529Z,99390.66
2022-12-24T05:26:43.092Z,99402.22
2022-12-24T05:29:12.940Z,99405.00
2022-12-24T05:31:42.703Z,99409.03
2022-12-24T05:34:10.533Z,99411.47
2022-12-24T05:36:38.407Z,99417.75
2022-12-24T05:39:11.632Z,99411.66
2022-12-24T05:41:42.993Z,99407.25
2022-12-24T05:44:10.394Z,99408.16
2022-12-24T05:46:37.913Z,99411.19
2022-12-24T05:49:06.797Z,99420.22
2022-12-24T05:51:34.229Z,99421.56
2022-12-24T05:54:01.640Z,99437.66
2022-12-24T05:56:29.536Z,99429.91
2022-12-24T05:58:57.946Z,99445.53
2022-12-24T06:01:26.161Z,99437.22
2022-12-24T06:03:54.226Z,99448.97
2022-12-24T06:06:23.827Z,99456.38
2022-12-24T06:08:52.982Z,99456.31
2022-12-24T06:11:22.196Z,99468.09
2022-12-24T06:13:49.601Z,99472.03
2022-12-24T06:16:19.067Z,99482.28
2022-12-24T06:18:46.646Z,99494.09
2022-12-24T06:21:14.583Z,99480.56
2022-12-24T06:23:44.950Z,99500.47
2022-12-24T06:26:14.614Z,99494.25
2022-12-24T06:28:42.719Z,99497.94
2022-12-24T06:31:12.735Z,99503.03
2022-12-24T06:33:40.541Z,99505.25
2022-12-24T06:36:15.004Z,99508.38
2022-12-24T06:38:46.229Z,99517.91
2022-12-24T06:41:14.057Z,99508.16
2022-12-24T06:43:45.061Z,99506.09
2022-12-24T06:46:12.967Z,99522.53
2022-12-24T06:48:40.515Z,99503.41
2022-12-24T06:51:08.012Z,99517.16
2022-12-24T06:53:35.364Z,99529.00
2022-12-24T06:56:04.779Z,99537.38
2022-12-24T06:58:32.403Z,99539.19
2022-12-24T07:01:01.988Z,99550.88
2022-12-24T07:03:29.830Z,99555.03
2022-12-24T07:05:57.418Z,99558.53
2022-12-24T07:08:25.067Z,99570.00
2022-12-24T07:10:54.514Z,99571.31
2022-12-24T07:13:23.476Z,99571.94
2022-12-24T07:15:58.662Z,99574.88
2022-12-24T07:18:26.254Z,99584.38
2022-12-24T07:20:53.637Z,99588.88
2022-12-24T07:23:21.190Z,99594.97
2022-12-24T07:25:48.603Z,99599.38
2022-12-24T07:28:16.041Z,99605.84
2022-12-24T07:30:44.912Z,99611.22
2022-12-24T07:33:12.406Z,99617.16
2022-12-24T07:35:39.771Z,99624.63
2022-12-24T07:38:07.130Z,99620.69
2022-12-24T07:40:34.798Z,99609.97
2022-12-24T07:43:02.129Z,99618.38
2022-12-24T07:45:29.538Z,99616.94
2022-12-24T07:47:58.269Z,99632.06
2022-12-24T07:50:25.627Z,99636.69
2022-12-24T07:52:53.420Z,99623.19
2022-12-24T07:55:21.211Z,99642.91
2022-12-24T07:57:48.620Z,99642.44
2022-12-24T08:00:16.564Z,99643.53
2022-12-24T08:02:44.311Z,99644.13
2022-12-24T08:05:13.172Z,99645.84
2022-12-24T08:07:40.577Z,99653.63
2022-12-24T08:10:09.412Z,99665.84
2022-12-24T08:12:36.812Z,99663.88
2022-12-24T08:15:04.675Z,99656.47
2022-12-24T08:17:32.621Z,99659.50
2022-12-24T08:20:00.120Z,99669.72
2022-12-24T08:22:28.872Z,99688.88
2022-12-24T08:24:56.257Z,99689.97
2022-12-24T08:27:23.665Z,99698.38
2022-12-24T08:29:51.107Z,99705.31
2022-12-24T08:32:19.027Z,99699.47
2022-12-24T08:34:46.310Z,99707.78
2022-12-24T08:37:13.734Z,99709.22
2022-12-24T08:39:42.460Z,99728.88
2022-12-24T08:42:09.870Z,99714.38
2022-12-24T08:44:37.312Z,99714.94
2022-12-24T08:47:04.830Z,99730.81
2022-12-24T08:49:32.250Z,99737.28
2022-12-24T08:51:59.616Z,99746.28
2022-12-24T08:54:27.467Z,99744.34
2022-12-24T08:56:56.189Z,99749.59
2022-12-24T08:59:23.704Z,99748.97
2022-12-24T09:01:52.306Z,99753.50
2022-12-24T09:04:20.153Z,99769.97
2022-12-24T09:06:47.524Z,99768.22
2022-12-24T09:09:14.965Z,99771.28
2022-12-24T09:11:42.431Z,99773.13
2022-12-24T09:14:11.127Z,99770.69
2022-12-24T09:16:38.592Z,99777.75
2022-12-24T09:19:06.444Z,99775.94
2022-12-24T09:21:33.893Z,99785.91
2022-12-24T09:24:01.369Z,99789.22
2022-12-24T09:26:29.902Z,99789.50
2022-12-24T09:28:58.282Z,99795.81
2022-12-24T09:31:27.721Z,99800.91
2022-12-24T09:33:55.977Z,99803.84
2022-12-24T09:36:23.416Z,99804.69
2022-12-24T09:38:51.219Z,99810.19
2022-12-24T09:41:31.753Z,99810.91
2022-12-24T09:44:04.730Z,99819.56
2022-12-24T09:46:36.807Z,99807.97
2022-12-24T09:49:10.072Z,99821.25
2022-12-24T09:51:42.674Z,99815.94
2022-12-24T09:54:16.176Z,99831.81
2022-12-24T09:56:46.275Z,99829.81
2022-12-24T09:59:16.266Z,99840.75
2022-12-24T10:01:45.070Z,99837.78
2022-12-24T10:04:15.639Z,99849.47
2022-12-24T10:06:51.327Z,99846.28
2022-12-24T10:09:29.704Z,99854.97
2022-12-24T10:12:04.988Z,99839.56
2022-12-24T10:14:50.566Z,99851.09
2022-12-24T10:17:40.567Z,99842.28
2022-12-24T10:20:30.992Z,99856.78
2022-12-24T10:23:06.051Z,99861.84
2022-12-24T10:25:39.179Z,99882.63
2022-12-24T10:28:13.958Z,99871.50
2022-12-24T10:30:42.543Z,99870.75
2022-12-24T10:33:20.995Z,99864.78
2022-12-24T10:35:52.853Z,99872.94
2022-12-24T10:38:20.418Z,99871.09
2022-12-24T10:40:50.856Z,99870.31
2022-12-24T10:43:21.358Z,99873.66
2022-12-24T10:45:52.165Z,99876.00
2022-12-24T10:48:26.602Z,99872.47
2022-12-24T10:51:00.207Z,99876.50
2022-12-24T10:53:37.752Z,99871.81
2022-12-24T10:56:08.226Z,99873.78
2022-12-24T10:58:36.810Z,99884.03
2022-12-24T11:01:05.167Z,99890.91
2022-12-24T11:03:35.943Z,99897.78
2022-12-24T11:06:07.952Z,99902.09
2022-12-24T11:08:36.398Z,99906.25
2022-12-24T11:11:06.343Z,99917.28
2022-12-24T11:13:38.414Z,99912.44
2022-12-24T11:16:11.088Z,99916.63
2022-12-24T11:18:51.145Z,99920.88
2022-12-24T11:21:24.689Z,99919.81
2022-12-24T11:23:55.664Z,99913.31
2022-12-24T11:26:25.428Z,99924.47
2022-12-24T11:29:14.451Z,99926.63
2022-12-24T11:31:41.975Z,99936.16
2022-12-24T11:34:25.461Z,99944.22
2022-12-24T11:36:54.888Z,99940.84
2022-12-24T11:39:24.101Z,99929.94
2022-12-24T11:41:54.040Z,99958.28
2022-12-24T11:44:26.750Z,99946.56
2022-12-24T11:46:57.362Z,99947.66
2022-12-24T11:49:28.392Z,99947.03
2022-12-24T11:52:12.579Z,99955.00
2022-12-24T11:54:46.542Z,99961.97
2022-12-24T11:57:18.707Z,99961.34
2022-12-24T11:59:49.190Z,99964.03
2022-12-24T12:02:22.605Z,99976.97
2022-12-24T12:04:55.030Z,99976.97
2022-12-24T12:07:26.409Z,99967.91
2022-12-24T12:09:58.966Z,99975.97
2022-12-24T12:12:29.002Z,99973.06
2022-12-24T12:15:01.196Z,99970.88
2022-12-24T12:17:33.439Z,99973.69
2022-12-24T12:20:07.186Z,99981.50
2022-12-24T12:22:39.809Z,99981.25
2022-12-24T12:25:18.480Z,99988.34
2022-12-24T12:27:48.596Z,99987.72
2022-12-24T12:30:18.715Z,99986.03
2022-12-24T12:32:52.114Z,99982.09
2022-12-24T12:35:26.946Z,99983.09
2022-12-24T12:37:58.211Z,99973.56
2022-12-24T12:40:48.430Z,99980.88
2022-12-24T12:43:32.459Z,99978.81
2022-12-24T12:46:07.705Z,99986.72
2022-12-24T12:49:02.892Z,99987.47
2022-12-24T12:51:43.249Z,99999.03
2022-12-24T12:54:32.173Z,99991.34
2022-12-24T12:57:06.573Z,99992.56
2022-12-24T12:59:37.735Z,99996.00
2022-12-24T13:02:26.060Z,99993.41
2022-12-24T13:05:15.258Z,99991.50
2022-12-24T13:08:18.721Z,99993.56
2022-12-24T13:11:05.439Z,99993.56
2022-12-24T13:13:48.563Z,99994.09
2022-12-24T13:16:41.102Z,100001.78
2022-12-24T13:19:19.594Z,100000.91
2022-12-24T13:21:48.782Z,99994.56
2022-12-24T13:24:20.090Z,99997.47
2022-12-24T13:27:01.993Z,99996.47
2022-12-24T13:29:42.420Z,100004.53
2022-12-24T13:32:39.188Z,99999.63
2022-12-24T13:35:37.144Z,100011.38
2022-12-24T13:38:46.077Z,100008.03
2022-12-24T13:41:49.808Z,100007.78
2022-12-24T13:44:23.103Z,100010.38
2022-12-24T13:46:56.502Z,100010.13
2022-12-24T13:49:29.655Z,100014.56
2022-12-24T13:52:19.592Z,100015.28
2022-12-24T13:54:51.432Z,100008.69
2022-12-24T13:57:32.777Z,100012.50
2022-12-24T14:00:03.671Z,100015.78
2022-12-24T14:02:36.850Z,100019.56
2022-12-24T14:05:09.360Z,100019.66
2022-12-24T14:07:37.928Z,100018.22
2022-12-24T14:10:07.191Z,100021.66
2022-12-24T14:12:48.910Z,100030.59
2022-12-24T14:15:52.818Z,100026.72
2022-12-24T14:18:23.427Z,100039.53
2022-12-24T14:20:52.453Z,100042.31
2022-12-24T14:23:31.927Z,100036.72
2022-12-24T14:26:01.619Z,100047.09
2022-12-24T14:28:37.543Z,100042.94
2022-12-24T14:31:06.661Z,100049.91
2022-12-24T14:33:36.127Z,100058.06
2022-12-24T14:36:04.118Z,100066.66
2022-12-24T14:38:31.979Z,100063.34
2022-12-24T14:41:08.993Z,100070.66
2022-12-24T14:43:49.646Z,100061.69
2022-12-24T14:46:25.595Z,100070.47
2022-12-24T14:48:56.159Z,100072.50
2022-12-24T14:51:30.697Z,100076.44
2022-12-24T14:54:32.187Z,100079.69
2022-12-24T14:57:23.156Z,100091.22
2022-12-24T14:59:54.274Z,100091.56
2022-12-24T15:02:39.302Z,100092.41
2022-12-24T15:05:10.336Z,100099.81
2022-12-24T15:07:47.340Z,100100.19
2022-12-24T15:10:28.927Z,100100.59
2022-12-24T15:12:58.564Z,100094.22
2022-12-24T15:15:27.398Z,100106.63
2022-12-24T15:17:55.946Z,100100.59
2022-12-24T15:20:27.468Z,100101.16
2022-12-24T15:22:56.904Z,100103.91
2022-12-24T15:25:27.126Z,100118.81
2022-12-24T15:27:54.737Z,100119.75
2022-12-24T15:30:24.186Z,100118.06
2022-12-24T15:32:54.889Z,100121.69
2022-12-24T15:35:52.607Z,100134.25
2022-12-24T15:38:25.588Z,100131.66
2022-12-24T15:40:53.995Z,100132.63
2022-12-24T15:43:21.745Z,100136.84
2022-12-24T15:45:49.412Z,100141.28
2022-12-24T15:48:23.523Z,100144.31
2022-12-24T15:50:53.701Z,100147.34
2022-12-24T15:53:26.790Z,100146.38
2022-12-24T15:56:03.508Z,100149.72
2022-12-24T15:58:33.274Z,100150.56
2022-12-24T16:01:02.652Z,100145.41
2022-12-24T16:03:31.972Z,100160.00
2022-12-24T16:06:03.263Z,100164.41
2022-12-24T16:08:32.990Z,100173.09
2022-12-24T16:11:19.019Z,100176.19
2022-12-24T16:14:01.538Z,100193.59
2022-12-24T16:16:35.730Z,100206.53
2022-12-24T16:19:06.908Z,100209.97
2022-12-24T16:21:37.530Z,100207.06
2022-12-24T16:24:08.812Z,100208.50
2022-12-24T16:26:38.098Z,100212.59
2022-12-24T16:29:05.523Z,100219.00
2022-12-24T16:31:34.877Z,100221.81
2022-12-24T16:34:04.496Z,100218.38
2022-12-24T16:36:33.198Z,100219.19
2022-12-24T16:39:18.202Z,100220.03
2022-12-24T16:42:03.316Z,100229.38
2022-12-24T16:44:30.678Z,100233.19
2022-12-24T16:47:00.581Z,100241.22
2022-12-24T16:49:30.780Z,100239.28
2022-12-24T16:51:58.497Z,100245.25
2022-12-24T16:54:25.891Z,100246.03
2022-12-24T16:56:53.257Z,100240.59
2022-12-24T16:59:22.912Z,100235.69
2022-12-24T17:01:51.844Z,100233.63
2022-12-24T17:04:19.969Z,100232.50
2022-12-24T17:06:49.787Z,100233.09
2022-12-24T17:09:17.755Z,100238.53
2022-12-24T17:11:45.211Z,100241.69
2022-12-24T17:14:19.652Z,100233.34
2022-12-24T17:16:47.788Z,100255.19
2022-12-24T17:19:15.337Z,100245.81
2022-12-24T17:21:42.817Z,100248.94
2022-12-24T17:24:12.374Z,100268.03
2022-12-24T17:26:39.818Z,100269.34
2022-12-24T17:29:07.296Z,100273.34
2022-12-24T17:31:34.915Z,100271.59
2022-12-24T17:34:02.361Z,100268.06
2022-12-24T17:36:29.728Z,100270.41
2022-12-24T17:38:57.131Z,100272.25
2022-12-24T17:41:25.803Z,100275.31
2022-12-24T17:43:53.390Z,100274.66
2022-12-24T17:46:22.747Z,100276.00
2022-12-24T17:48:50.807Z,100284.13
2022-12-24T17:51:20.438Z,100280.75
2022-12-24T17:53:48.645Z,100280.56
2022-12-24T17:56:17.027Z,100282.59
2022-12-24T17:58:47.201Z,100284.94
2022-12-24T18:01:17.102Z,100295.56
2022-12-24T18:03:44.739Z,100303.81
2022-12-24T18:06:13.388Z,100308.53
2022-12-24T18:08:42.562Z,100302.34
2022-12-24T18:11:14.431Z,100310.50
2022-12-24T18:13:42.707Z,100321.16
2022-12-24T18:16:19.959Z,100316.75
2022-12-24T18:18:48.189Z,100317.78
2022-12-24T18:21:17.172Z,100318.41
2022-12-24T18:23:46.383Z,100318.38
2022-12-24T18:26:15.339Z,100315.84
2022-12-24T18:28:43.686Z,100324.69
2022-12-24T18:31:13.923Z,100332.53
2022-12-24T18:33:43.371Z,100328.81
2022-12-24T18:36:11.294Z,100334.31
2022-12-24T18:38:39.179Z,100332.34
2022-12-24T18:41:08.368Z,100329.47
2022-12-24T18:43:36.115Z,100335.00
2022-12-24T18:46:07.408Z,100336.97
2022-12-24T18:48:34.830Z,100331.41
2022-12-24T18:51:03.612Z,100339.41
2022-12-24T18:53:31.067Z,100337.56
2022-12-24T18:56:03.821Z,100332.47
2022-12-24T18:58:31.228Z,100335.53
2022-12-24T19:00:58.647Z,100341.56
2022-12-24T19:03:26.394Z,100342.53
2022-12-24T19:05:53.769Z,100340.97
2022-12-24T19:08:46.988Z,100338.97
2022-12-24T19:11:10.001Z,100333.16
2022-12-24T19:13:37.415Z,100346.72
2022-12-24T19:16:05.924Z,100359.50
2022-12-24T19:18:33.676Z,100356.44
2022-12-24T19:21:06.104Z,100368.84
2022-12-24T19:23:35.106Z,100362.00
2022-12-24T19:26:02.806Z,100366.41
2022-12-24T19:28:30.730Z,100371.31
2022-12-24T19:31:03.488Z,100371.25
2022-12-24T19:33:31.125Z,100373.06
2022-12-24T19:35:58.722Z,100374.06
2022-12-24T19:38:26.105Z,100372.13
2022-12-24T19:40:54.799Z,100375.50
2022-12-24T19:43:22.192Z,100385.56
2022-12-24T19:45:49.744Z,100388.63
2022-12-24T19:48:17.323Z,100389.28
2022-12-24T19:50:44.679Z,100386.72
2022-12-24T19:53:12.058Z,100394.84
2022-12-24T19:55:45.622Z,100384.81
2022-12-24T19:58:14.473Z,100391.91
2022-12-24T20:00:41.860Z,100397.41
2022-12-24T20:03:09.381Z,100392.53
2022-12-24T20:05:40.953Z,100393.41
2022-12-24T20:08:08.591Z,100405.44
2022-12-24T20:10:39.528Z,100406.13
2022-12-24T20:13:06.964Z,100411.13
2022-12-24T20:15:40.597Z,100407.81
2022-12-24T20:18:08.463Z,100424.50
2022-12-24T20:20:36.059Z,100427.53
2022-12-24T20:23:04.360Z,100420.69
2022-12-24T20:25:34.224Z,100428.09
2022-12-24T20:28:01.604Z,100432.78
2022-12-24T20:30:29.021Z,100419.00
2022-12-24T20:32:58.395Z,100420.03
2022-12-24T20:35:25.836Z,100423.47
2022-12-24T20:37:53.327Z,100417.16
2022-12-24T20:40:20.719Z,100420.09
2022-12-24T20:42:48.073Z,100423.13
2022-12-24T20:45:16.319Z,100428.28
2022-12-24T20:47:43.695Z,100419.44
2022-12-24T20:50:12.815Z,100425.09
2022-12-24T20:52:40.489Z,100427.56
2022-12-24T20:55:08.234Z,100425.41
2022-12-24T20:57:36.923Z,100427.91
2022-12-24T21:00:05.476Z,100428.56
2022-12-24T21:02:33.000Z,100433.06
2022-12-24T21:05:02.538Z,100431.28
2022-12-24T21:07:31.610Z,100431.78
2022-12-24T21:09:58.974Z,100431.88
2022-12-24T21:12:44.165Z,100435.38
2022-12-24T21:15:11.693Z,100442.75
2022-12-24T21:17:39.068Z,100440.88
2022-12-24T21:20:07.669Z,100446.16
2022-12-24T21:22:36.363Z,100445.44
2022-12-24T21:25:03.737Z,100454.03
2022-12-24T21:27:31.881Z,100447.38
2022-12-24T21:29:59.985Z,100450.50
2022-12-24T21:32:27.297Z,100456.50
2022-12-24T21:34:54.667Z,100447.22
2022-12-24T21:37:22.050Z,100445.00
2022-12-24T21:39:51.230Z,100448.50
2022-12-24T21:42:18.750Z,100445.69
2022-12-24T21:44:46.155Z,100451.25
2022-12-24T21:47:13.833Z,100456.03
2022-12-24T21:49:58.826Z,100460.34
2022-12-24T21:52:26.197Z,100456.22
2022-12-24T21:54:53.954Z,100460.56
2022-12-24T21:57:38.710Z,100465.66
2022-12-24T22:00:22.914Z,100466.88
2022-12-24T22:02:51.614Z,100462.00
2022-12-24T22:05:19.942Z,100477.31
2022-12-24T22:08:05.049Z,100486.84
2022-12-24T22:10:51.481Z,100490.56
2022-12-24T22:13:19.866Z,100487.97
2022-12-24T22:15:49.009Z,100483.50
2022-12-24T22:18:18.066Z,100479.28
2022-12-24T22:20:46.643Z,100481.72
2022-12-24T22:23:14.677Z,100486.03
2022-12-24T22:25:44.372Z,100503.09
2022-12-24T22:28:12.738Z,100512.28
2022-12-24T22:30:41.210Z,100511.31
2022-12-24T22:33:09.395Z,100508.50
2022-12-24T22:35:37.778Z,100513.56
2022-12-24T22:38:05.249Z,100505.56
2022-12-24T22:40:32.630Z,100503.69
2022-12-24T22:43:01.374Z,100510.34
2022-12-24T22:45:28.757Z,100508.50
2022-12-24T22:47:56.189Z,100521.22
2022-12-24T22:50:23.808Z,100532.81
2022-12-24T22:52:52.523Z,100537.16
2022-12-24T22:55:20.065Z,100529.22
2022-12-24T22:57:47.608Z,100526.75
2022-12-24T23:00:39.290Z,100540.28
2022-12-24T23:03:08.005Z,100546.50
2022-12-24T23:05:35.672Z,100554.56
2022-12-24T23:08:03.138Z,100554.25
2022-12-24T23:10:30.543Z,100553.06
2022-12-24T23:13:17.303Z,100560.38
2022-12-24T23:15:46.098Z,100559.19
2022-12-24T23:18:13.800Z,100555.94
2022-12-24T23:20:43.161Z,100550.28
2022-12-24T23:23:10.577Z,100560.38
2022-12-24T23:25:38.284Z,100571.00
2022-12-24T23:28:06.031Z,100572.66
2022-12-24T23:30:33.697Z,100567.69
2022-12-24T23:33:02.549Z,100559.97
2022-12-24T23:35:29.938Z,100563.56
2022-12-24T23:37:57.381Z,100560.84
2022-12-24T23:40:25.679Z,100569.53
2022-12-24T23:42:53.076Z,100560.56
2022-12-24T23:45:20.474Z,100546.81
2022-12-24T23:47:47.878Z,100559.06
2022-12-24T23:50:16.561Z,100572.19
2022-12-24T23:52:43.942Z,100579.25
2022-12-24T23:55:11.320Z,100587.75
2022-12-24T23:57:38.704Z,100578.47
